Yeager (CRW)

 

Airport Diagram
Current Weather/Forecast (MVFR Conditions)
METAR KCRW 011654Z 24009G20KT 6SM -SN BR BKN010 OVC018 M01/M02 A2991 RMK AO2 SLP136 P0000 T10061017
TAF KCRW 011739Z 0118/0218 25012G22KT 5SM -SN BKN010 FM012000 25014G23KT P6SM OVC015 FM020400 25010G17KT P6SM BKN018 FM021300 24007KT P6SM SCT040

Airport Information

All Charts
General
Chart Name View
AIRPORT DIAGRAM
AIRPORT DIAGRAM
TAKEOFF MINIMUMS
ALTERNATE MINIMUMS
TAKEOFF MINIMUMS
ALTERNATE MINIMUMS

Approaches
Chart Name Download
ILS OR LOC RWY 05
ILS OR LOC RWY 23
RNAV (RNP) Z RWY 05
RNAV (RNP) Z RWY 23
RNAV (GPS) Y RWY 05
RNAV (GPS) Y RWY 23
VOR-A
ILS OR LOC RWY 05
ILS OR LOC RWY 23
RNAV (RNP) Z RWY 05
RNAV (RNP) Z RWY 23
RNAV (GPS) Y RWY 05
RNAV (GPS) Y RWY 23
VOR-A


Airport Statistics
Departures Arrivals Local
All Collected Stats since June 2016: 363 301 18
2020 Stats: 122 123 0
December Stats: 0 0 0

Inbound Traffic (Arrivals) - 0

No inbound traffic.


Outbound Traffic (Departures) - 0

No outbound traffic.


Local Traffic (Pattern) - 0

No local traffic.